createdAt,value
2017-04-25T00:00:01.725Z,995.97
2017-04-25T00:01:03.144Z,995.97
2017-04-25T00:02:04.561Z,995.90
2017-04-25T00:03:05.975Z,995.91
2017-04-25T00:04:07.392Z,995.92
2017-04-25T00:05:08.817Z,995.93
2017-04-25T00:06:10.233Z,995.92
2017-04-25T00:07:11.658Z,995.92
2017-04-25T00:08:13.073Z,995.92
2017-04-25T00:09:14.494Z,995.90
2017-04-25T00:10:15.916Z,995.87
2017-04-25T00:11:17.334Z,995.89
2017-04-25T00:12:18.755Z,995.90
2017-04-25T00:13:20.171Z,995.90
2017-04-25T00:14:21.592Z,995.84
2017-04-25T00:15:23.921Z,995.89
2017-04-25T00:16:25.339Z,995.82
2017-04-25T00:17:26.764Z,995.82
2017-04-25T00:18:28.183Z,995.87
2017-04-25T00:19:29.599Z,995.84
2017-04-25T00:20:31.013Z,995.81
2017-04-25T00:21:32.428Z,995.84
2017-04-25T00:22:33.850Z,995.80
2017-04-25T00:23:35.269Z,995.82
2017-04-25T00:24:36.686Z,995.75
2017-04-25T00:25:38.104Z,995.80
2017-04-25T00:26:39.521Z,995.80
2017-04-25T00:27:40.946Z,995.78
2017-04-25T00:28:42.366Z,995.79
2017-04-25T00:29:43.786Z,995.82
2017-04-25T00:30:45.214Z,995.86
2017-04-25T00:31:46.645Z,995.94
2017-04-25T00:32:48.075Z,995.96
2017-04-25T00:33:49.489Z,995.92
2017-04-25T00:34:50.917Z,995.96
2017-04-25T00:35:52.338Z,995.97
2017-04-25T00:36:53.752Z,995.93
2017-04-25T00:37:55.172Z,995.92
2017-04-25T00:38:56.642Z,995.92
2017-04-25T00:39:58.174Z,995.96
2017-04-25T00:40:59.595Z,995.94
2017-04-25T00:42:01.014Z,995.96
2017-04-25T00:43:02.525Z,995.93
2017-04-25T00:44:03.941Z,995.87
2017-04-25T00:45:05.356Z,995.89
2017-04-25T00:46:06.775Z,995.87
2017-04-25T00:47:08.196Z,995.90
2017-04-25T00:48:09.615Z,995.87
2017-04-25T00:49:11.027Z,995.91
2017-04-25T00:50:12.446Z,995.92
2017-04-25T00:51:13.863Z,995.91
2017-04-25T00:52:15.280Z,995.95
2017-04-25T00:53:16.703Z,995.95
2017-04-25T00:54:18.119Z,995.94
2017-04-25T00:55:19.537Z,995.94
2017-04-25T00:56:20.960Z,995.97
2017-04-25T00:57:22.384Z,995.95
2017-04-25T00:58:23.801Z,995.94
2017-04-25T00:59:25.215Z,995.89
2017-04-25T01:00:26.633Z,995.91
2017-04-25T01:01:28.049Z,995.88
2017-04-25T01:02:29.466Z,995.94
2017-04-25T01:03:30.884Z,995.94
2017-04-25T01:04:32.299Z,995.93
2017-04-25T01:05:33.738Z,995.91
2017-04-25T01:06:35.154Z,995.90
2017-04-25T01:07:36.571Z,995.92
2017-04-25T01:08:37.984Z,995.91
2017-04-25T01:09:39.398Z,995.93
2017-04-25T01:10:40.824Z,995.93
2017-04-25T01:11:42.231Z,995.91
2017-04-25T01:12:43.649Z,995.98
2017-04-25T01:13:45.069Z,995.99
2017-04-25T01:14:46.485Z,995.99
2017-04-25T01:15:47.927Z,996.04
2017-04-25T01:16:49.331Z,996.00
2017-04-25T01:17:50.747Z,996.06
2017-04-25T01:18:52.161Z,996.08
2017-04-25T01:19:53.580Z,996.05
2017-04-25T01:20:54.996Z,996.10
2017-04-25T01:21:56.415Z,996.10
2017-04-25T01:22:57.831Z,996.12
2017-04-25T01:23:59.245Z,996.08
2017-04-25T01:25:00.661Z,996.17
2017-04-25T01:26:02.079Z,996.13
2017-04-25T01:27:03.493Z,996.12
2017-04-25T01:28:04.912Z,996.14
2017-04-25T01:29:06.324Z,996.13
2017-04-25T01:30:07.740Z,996.10
2017-04-25T01:31:09.161Z,996.08
2017-04-25T01:32:10.573Z,996.07
2017-04-25T01:33:11.996Z,996.04
2017-04-25T01:34:13.409Z,996.07
2017-04-25T01:35:14.824Z,996.03
2017-04-25T01:36:16.241Z,996.02
2017-04-25T01:37:17.666Z,996.06
2017-04-25T01:38:19.091Z,996.10
2017-04-25T01:39:20.502Z,996.06
2017-04-25T01:40:21.925Z,996.07
2017-04-25T01:41:23.341Z,996.07
2017-04-25T01:42:24.751Z,996.14
2017-04-25T01:43:26.167Z,996.20
2017-04-25T01:44:27.584Z,996.18
2017-04-25T01:45:28.994Z,996.22
2017-04-25T01:46:30.416Z,996.23
2017-04-25T01:47:31.833Z,996.18
2017-04-25T01:48:33.240Z,996.19
2017-04-25T01:49:34.661Z,996.15
2017-04-25T01:50:36.072Z,996.19
2017-04-25T01:51:37.479Z,996.17
2017-04-25T01:52:38.910Z,996.13
2017-04-25T01:53:40.322Z,996.11
2017-04-25T01:54:41.731Z,996.12
2017-04-25T01:55:43.142Z,996.07
2017-04-25T01:56:44.560Z,996.10
2017-04-25T01:57:45.976Z,996.10
2017-04-25T01:58:47.388Z,996.09
2017-04-25T01:59:48.801Z,996.15
2017-04-25T02:00:50.217Z,996.10
2017-04-25T02:01:51.631Z,996.12
2017-04-25T02:02:53.052Z,996.11
2017-04-25T02:03:54.469Z,996.14
2017-04-25T02:04:55.877Z,996.11
2017-04-25T02:05:57.297Z,996.09
2017-04-25T02:06:58.711Z,996.09
2017-04-25T02:08:00.129Z,996.07
2017-04-25T02:09:01.543Z,996.09
2017-04-25T02:10:02.963Z,996.12
2017-04-25T02:11:04.380Z,996.15
2017-04-25T02:12:05.806Z,996.13
2017-04-25T02:13:07.229Z,996.12
2017-04-25T02:14:08.642Z,996.07
2017-04-25T02:15:10.056Z,996.06
2017-04-25T02:16:11.477Z,996.10
2017-04-25T02:17:12.894Z,996.11
2017-04-25T02:18:14.305Z,996.11
2017-04-25T02:19:15.724Z,996.11
2017-04-25T02:20:17.143Z,996.08
2017-04-25T02:21:18.554Z,996.11
2017-04-25T02:22:19.980Z,996.06
2017-04-25T02:23:21.396Z,996.08
2017-04-25T02:24:22.815Z,996.08
2017-04-25T02:25:24.231Z,996.11
2017-04-25T02:26:25.643Z,996.12
2017-04-25T02:27:27.050Z,996.10
2017-04-25T02:28:28.471Z,996.09
2017-04-25T02:29:29.882Z,996.06
2017-04-25T02:30:31.302Z,996.11
2017-04-25T02:31:32.721Z,996.11
2017-04-25T02:32:34.139Z,996.09
2017-04-25T02:33:35.559Z,996.14
2017-04-25T02:34:36.970Z,996.09
2017-04-25T02:35:38.380Z,996.08
2017-04-25T02:36:39.802Z,996.05
2017-04-25T02:37:41.217Z,996.05
2017-04-25T02:38:42.635Z,996.04
2017-04-25T02:39:44.051Z,996.11
2017-04-25T02:40:45.468Z,996.08
2017-04-25T02:41:46.886Z,996.08
2017-04-25T02:42:48.295Z,996.12
2017-04-25T02:43:49.706Z,996.11
2017-04-25T02:44:51.126Z,996.16
2017-04-25T02:45:52.536Z,996.15
2017-04-25T02:46:53.954Z,996.14
2017-04-25T02:47:55.372Z,996.19
2017-04-25T02:48:56.787Z,996.18
2017-04-25T02:49:58.202Z,996.18
2017-04-25T02:50:59.614Z,996.18
2017-04-25T02:52:01.033Z,996.17
2017-04-25T02:53:02.446Z,996.18
2017-04-25T02:54:03.857Z,996.17
2017-04-25T02:55:05.276Z,996.17
2017-04-25T02:56:06.686Z,996.17
2017-04-25T02:57:08.109Z,996.16
2017-04-25T02:58:09.526Z,996.16
2017-04-25T02:59:10.942Z,996.16
2017-04-25T03:00:12.364Z,996.16
2017-04-25T03:01:13.784Z,996.12
2017-04-25T03:02:15.200Z,996.15
2017-04-25T03:03:16.619Z,996.16
2017-04-25T03:04:18.035Z,996.11
2017-04-25T03:05:19.448Z,996.10
2017-04-25T03:06:20.861Z,996.13
2017-04-25T03:07:22.269Z,996.13
2017-04-25T03:08:23.691Z,996.13
2017-04-25T03:09:25.107Z,996.13
2017-04-25T03:10:26.520Z,996.15
2017-04-25T03:11:27.940Z,996.08
2017-04-25T03:12:29.354Z,996.08
2017-04-25T03:13:30.769Z,996.06
2017-04-25T03:14:32.183Z,996.05
2017-04-25T03:15:33.602Z,996.12
2017-04-25T03:16:35.016Z,996.10
2017-04-25T03:17:36.431Z,996.19
2017-04-25T03:18:37.841Z,996.19
2017-04-25T03:19:39.261Z,996.17
2017-04-25T03:20:40.676Z,996.18
2017-04-25T03:21:42.091Z,996.17
2017-04-25T03:22:43.508Z,996.14
2017-04-25T03:23:44.927Z,996.08
2017-04-25T03:24:46.336Z,996.09
2017-04-25T03:25:47.758Z,996.08
2017-04-25T03:26:49.170Z,996.12
2017-04-25T03:27:50.587Z,996.09
2017-04-25T03:28:52.001Z,996.12
2017-04-25T03:29:53.415Z,996.07
2017-04-25T03:30:54.833Z,996.07
2017-04-25T03:31:56.246Z,996.06
2017-04-25T03:32:57.673Z,996.08
2017-04-25T03:33:59.080Z,996.08
2017-04-25T03:35:00.501Z,996.11
2017-04-25T03:36:01.918Z,996.08
2017-04-25T03:37:03.326Z,996.09
2017-04-25T03:38:04.745Z,996.09
2017-04-25T03:39:06.164Z,996.08
2017-04-25T03:40:07.573Z,996.09
2017-04-25T03:41:08.990Z,996.17
2017-04-25T03:42:10.404Z,996.17
2017-04-25T03:43:11.817Z,996.14
2017-04-25T03:44:13.237Z,996.20
2017-04-25T03:45:14.656Z,996.20
2017-04-25T03:46:16.085Z,996.19
2017-04-25T03:47:17.502Z,996.15
2017-04-25T03:48:18.914Z,996.16
2017-04-25T03:49:20.331Z,996.12
2017-04-25T03:50:21.748Z,996.12
2017-04-25T03:51:23.164Z,996.10
2017-04-25T03:52:24.584Z,996.11
2017-04-25T03:53:25.996Z,996.07
2017-04-25T03:54:27.409Z,996.08
2017-04-25T03:55:28.821Z,996.10
2017-04-25T03:56:30.235Z,996.08
2017-04-25T03:57:31.647Z,996.09
2017-04-25T03:58:33.064Z,996.07
2017-04-25T03:59:34.474Z,996.05
2017-04-25T04:00:35.886Z,996.08
2017-04-25T04:01:37.312Z,996.04
2017-04-25T04:02:38.730Z,996.06
2017-04-25T04:03:40.143Z,996.03
2017-04-25T04:04:41.560Z,996.03
2017-04-25T04:05:42.977Z,996.04
2017-04-25T04:06:44.382Z,995.95
2017-04-25T04:07:45.802Z,995.98
2017-04-25T04:08:47.217Z,995.94
2017-04-25T04:09:48.638Z,995.97
2017-04-25T04:10:50.047Z,996.00
2017-04-25T04:11:51.464Z,996.00
2017-04-25T04:12:52.889Z,996.05
2017-04-25T04:13:54.297Z,996.03
2017-04-25T04:14:55.717Z,995.97
2017-04-25T04:15:57.135Z,995.95
2017-04-25T04:16:58.548Z,995.96
2017-04-25T04:17:59.965Z,996.00
2017-04-25T04:19:02.291Z,995.96
2017-04-25T04:20:03.678Z,995.98
2017-04-25T04:21:05.094Z,996.01
2017-04-25T04:22:06.512Z,996.02
2017-04-25T04:23:07.926Z,996.02
2017-04-25T04:24:09.336Z,996.05
2017-04-25T04:25:10.754Z,996.12
2017-04-25T04:26:12.172Z,996.10
2017-04-25T04:27:13.587Z,996.05
2017-04-25T04:28:14.999Z,996.09
2017-04-25T04:29:16.422Z,996.11
2017-04-25T04:30:17.835Z,996.17
2017-04-25T04:31:19.250Z,996.19
2017-04-25T04:32:20.673Z,996.17
2017-04-25T04:33:22.097Z,996.19
2017-04-25T04:34:23.513Z,996.18
2017-04-25T04:35:24.925Z,996.23
2017-04-25T04:36:26.336Z,996.25
2017-04-25T04:37:27.755Z,996.24
2017-04-25T04:38:29.171Z,996.19
2017-04-25T04:39:30.589Z,996.20
2017-04-25T04:40:32.002Z,996.14
2017-04-25T04:41:33.419Z,996.18
2017-04-25T04:42:34.826Z,996.13
2017-04-25T04:43:36.241Z,996.18
2017-04-25T04:44:37.660Z,996.22
2017-04-25T04:45:39.075Z,996.26
2017-04-25T04:46:40.499Z,996.27
2017-04-25T04:47:41.919Z,996.25
2017-04-25T04:48:43.334Z,996.25
2017-04-25T04:49:44.757Z,996.29
2017-04-25T04:50:46.189Z,996.29
2017-04-25T04:51:47.611Z,996.27
2017-04-25T04:52:49.029Z,996.28
2017-04-25T04:53:50.496Z,996.33
2017-04-25T04:54:51.913Z,996.27
2017-04-25T04:55:53.326Z,996.22
2017-04-25T04:56:54.746Z,996.26
2017-04-25T04:57:56.162Z,996.29
2017-04-25T04:58:57.576Z,996.37
2017-04-25T04:59:58.995Z,996.33
2017-04-25T05:01:00.412Z,996.32
2017-04-25T05:02:01.836Z,996.36
2017-04-25T05:03:03.253Z,996.31
2017-04-25T05:04:04.667Z,996.30
2017-04-25T05:05:06.083Z,996.28
2017-04-25T05:06:07.504Z,996.30
2017-04-25T05:07:08.916Z,996.34
2017-04-25T05:08:10.338Z,996.37
2017-04-25T05:09:11.756Z,996.35
2017-04-25T05:10:13.171Z,996.31
2017-04-25T05:11:14.588Z,996.39
2017-04-25T05:12:16.009Z,996.33
2017-04-25T05:13:17.433Z,996.41
2017-04-25T05:14:18.853Z,996.36
2017-04-25T05:15:20.261Z,996.39
2017-04-25T05:16:21.680Z,996.39
2017-04-25T05:17:23.100Z,996.42
2017-04-25T05:18:24.515Z,996.41
2017-04-25T05:19:25.937Z,996.44
2017-04-25T05:20:27.356Z,996.41
2017-04-25T05:21:28.772Z,996.47
2017-04-25T05:22:30.191Z,996.40
2017-04-25T05:23:31.605Z,996.45
2017-04-25T05:24:33.027Z,996.43
2017-04-25T05:25:34.440Z,996.47
2017-04-25T05:26:35.855Z,996.46
2017-04-25T05:27:37.274Z,996.46
2017-04-25T05:28:38.698Z,996.55
2017-04-25T05:29:40.114Z,996.51
2017-04-25T05:30:41.525Z,996.53
2017-04-25T05:31:42.948Z,996.54
2017-04-25T05:32:44.392Z,996.57
2017-04-25T05:33:45.812Z,996.54
2017-04-25T05:34:47.233Z,996.57
2017-04-25T05:35:48.653Z,996.57
2017-04-25T05:36:50.174Z,996.53
2017-04-25T05:37:51.591Z,996.61
2017-04-25T05:38:53.013Z,996.56
2017-04-25T05:39:54.438Z,996.57
2017-04-25T05:40:55.868Z,996.59
2017-04-25T05:41:57.286Z,996.58
2017-04-25T05:42:58.852Z,996.59
2017-04-25T05:44:00.269Z,996.65
2017-04-25T05:45:01.690Z,996.61
2017-04-25T05:46:03.109Z,996.70
2017-04-25T05:47:04.605Z,996.68
2017-04-25T05:48:06.025Z,996.65
2017-04-25T05:49:07.451Z,996.67
2017-04-25T05:50:08.870Z,996.66
2017-04-25T05:51:10.301Z,996.68
2017-04-25T05:52:11.718Z,996.68
2017-04-25T05:53:13.133Z,996.65
2017-04-25T05:54:14.551Z,996.66
2017-04-25T05:55:15.970Z,996.68
2017-04-25T05:56:17.391Z,996.66
2017-04-25T05:57:18.811Z,996.67
2017-04-25T05:58:20.231Z,996.67
2017-04-25T05:59:21.652Z,996.73
2017-04-25T06:00:23.069Z,996.71
2017-04-25T06:01:24.482Z,996.73
2017-04-25T06:02:25.901Z,996.76
2017-04-25T06:03:27.315Z,996.80
2017-04-25T06:04:28.734Z,996.80
2017-04-25T06:05:30.162Z,996.75
2017-04-25T06:06:31.574Z,996.83
2017-04-25T06:07:32.991Z,996.84
2017-04-25T06:08:34.409Z,996.79
2017-04-25T06:09:35.829Z,996.84
2017-04-25T06:10:37.248Z,996.90
2017-04-25T06:11:38.672Z,996.82
2017-04-25T06:12:40.090Z,996.89
2017-04-25T06:13:41.513Z,996.87
2017-04-25T06:14:42.934Z,996.88
2017-04-25T06:15:44.350Z,996.91
2017-04-25T06:16:45.765Z,996.86
2017-04-25T06:17:47.187Z,996.88
2017-04-25T06:18:48.608Z,996.93
2017-04-25T06:19:50.029Z,996.96
2017-04-25T06:20:51.448Z,996.90
2017-04-25T06:21:52.870Z,996.91
2017-04-25T06:22:54.286Z,996.91
2017-04-25T06:23:55.711Z,996.93
2017-04-25T06:24:57.125Z,996.96
2017-04-25T06:25:58.546Z,996.98
2017-04-25T06:26:59.963Z,996.98
2017-04-25T06:28:01.380Z,996.99
2017-04-25T06:29:02.801Z,996.96
2017-04-25T06:30:04.228Z,997.02
2017-04-25T06:31:05.646Z,996.99
2017-04-25T06:32:07.065Z,997.04
2017-04-25T06:33:08.495Z,997.05
2017-04-25T06:34:09.919Z,996.99
2017-04-25T06:35:11.338Z,997.07
2017-04-25T06:36:12.759Z,997.02
2017-04-25T06:37:14.178Z,997.02
2017-04-25T06:38:15.599Z,997.01
2017-04-25T06:39:17.021Z,997.04
2017-04-25T06:40:18.451Z,997.08
2017-04-25T06:41:19.867Z,997.07
2017-04-25T06:42:21.288Z,997.11
2017-04-25T06:43:22.702Z,997.13
2017-04-25T06:44:24.126Z,997.08
2017-04-25T06:45:25.549Z,997.15
2017-04-25T06:46:26.966Z,997.12
2017-04-25T06:47:28.385Z,997.08
2017-04-25T06:48:29.810Z,997.13
2017-04-25T06:49:31.227Z,997.04
2017-04-25T06:50:32.640Z,997.05
2017-04-25T06:51:34.056Z,997.12
2017-04-25T06:52:35.485Z,997.07
2017-04-25T06:53:36.905Z,997.08
2017-04-25T06:54:38.321Z,997.14
2017-04-25T06:55:39.750Z,997.10
2017-04-25T06:56:41.169Z,997.12
2017-04-25T06:57:42.597Z,997.14
2017-04-25T06:58:44.014Z,997.09
2017-04-25T06:59:45.435Z,997.11
2017-04-25T07:00:46.851Z,997.09
2017-04-25T07:01:48.271Z,997.11
2017-04-25T07:02:49.704Z,997.13
2017-04-25T07:03:51.124Z,997.13
2017-04-25T07:04:52.540Z,997.22
2017-04-25T07:05:53.957Z,997.24
2017-04-25T07:06:55.380Z,997.14
2017-04-25T07:07:56.795Z,997.17
2017-04-25T07:08:58.216Z,997.10
2017-04-25T07:09:59.630Z,997.18
2017-04-25T07:11:01.046Z,997.19
2017-04-25T07:12:02.468Z,997.24
2017-04-25T07:13:03.898Z,997.34
2017-04-25T07:14:05.324Z,997.22
2017-04-25T07:15:06.818Z,997.26
2017-04-25T07:16:08.276Z,997.25
2017-04-25T07:17:09.697Z,997.26
2017-04-25T07:18:11.113Z,997.25
2017-04-25T07:19:12.581Z,997.21
2017-04-25T07:20:14.068Z,997.28
2017-04-25T07:21:15.486Z,997.20
2017-04-25T07:22:16.906Z,997.24
2017-04-25T07:23:18.325Z,997.34
2017-04-25T07:24:19.742Z,997.29
2017-04-25T07:25:21.172Z,997.28
2017-04-25T07:26:22.592Z,997.34
2017-04-25T07:27:24.008Z,997.38
2017-04-25T07:28:25.429Z,997.34
2017-04-25T07:29:26.850Z,997.41
2017-04-25T07:30:28.263Z,997.38
2017-04-25T07:31:29.680Z,997.44
2017-04-25T07:32:31.098Z,997.40
2017-04-25T07:33:32.521Z,997.38
2017-04-25T07:34:33.937Z,997.32
2017-04-25T07:35:35.369Z,997.44
2017-04-25T07:36:36.785Z,997.37
2017-04-25T07:37:38.200Z,997.41
2017-04-25T07:38:39.619Z,997.39
2017-04-25T07:39:41.038Z,997.43
2017-04-25T07:40:42.461Z,997.42
2017-04-25T07:41:43.877Z,997.44
2017-04-25T07:42:45.298Z,997.40
2017-04-25T07:43:46.718Z,997.45
2017-04-25T07:44:48.136Z,997.49
2017-04-25T07:45:49.558Z,997.53
2017-04-25T07:46:50.975Z,997.46
2017-04-25T07:47:52.396Z,997.47
2017-04-25T07:48:53.822Z,997.53
2017-04-25T07:49:56.206Z,997.48
2017-04-25T07:50:57.626Z,997.50
2017-04-25T07:51:59.052Z,997.54
2017-04-25T07:53:00.468Z,997.48
2017-04-25T07:54:01.891Z,997.48
2017-04-25T07:55:03.312Z,997.46
2017-04-25T07:56:04.726Z,997.57
2017-04-25T07:57:06.152Z,997.53
2017-04-25T07:58:07.578Z,997.47
2017-04-25T07:59:08.998Z,997.55
2017-04-25T08:00:10.420Z,997.53
2017-04-25T08:01:11.839Z,997.59
2017-04-25T08:02:13.259Z,997.64
2017-04-25T08:03:14.734Z,997.60
2017-04-25T08:04:16.160Z,997.63
2017-04-25T08:05:17.585Z,997.55
2017-04-25T08:06:19.007Z,997.54
2017-04-25T08:07:20.494Z,997.56
2017-04-25T08:08:21.911Z,997.69
2017-04-25T08:09:23.335Z,997.68
2017-04-25T08:10:24.788Z,997.77
2017-04-25T08:11:26.177Z,997.83
2017-04-25T08:12:27.604Z,997.82
2017-04-25T08:13:29.020Z,997.79
2017-04-25T08:14:30.444Z,997.77
2017-04-25T08:15:31.863Z,997.73
2017-04-25T08:16:33.286Z,997.75
2017-04-25T08:17:34.710Z,997.75
2017-04-25T08:18:36.129Z,997.73
2017-04-25T08:19:37.557Z,997.75
2017-04-25T08:20:38.987Z,997.77
2017-04-25T08:21:40.411Z,997.82
2017-04-25T08:22:41.835Z,997.79
2017-04-25T08:23:43.264Z,997.73
2017-04-25T08:24:44.681Z,997.70
2017-04-25T08:25:46.109Z,997.79
2017-04-25T08:26:47.532Z,997.69
2017-04-25T08:27:48.956Z,997.73
2017-04-25T08:28:50.368Z,997.79
2017-04-25T08:29:51.788Z,997.75
2017-04-25T08:30:53.210Z,997.67
2017-04-25T08:31:54.633Z,997.70
2017-04-25T08:32:56.062Z,997.79
2017-04-25T08:33:57.475Z,997.72
2017-04-25T08:34:58.896Z,997.77
2017-04-25T08:36:00.320Z,997.76
2017-04-25T08:37:01.741Z,997.78
2017-04-25T08:38:03.160Z,997.77
2017-04-25T08:39:04.588Z,997.69
2017-04-25T08:40:06.015Z,997.68
2017-04-25T08:41:07.429Z,997.70
2017-04-25T08:42:08.855Z,997.75
2017-04-25T08:43:10.278Z,997.78
2017-04-25T08:44:11.696Z,997.76
2017-04-25T08:45:13.119Z,997.75
2017-04-25T08:46:14.540Z,997.77
2017-04-25T08:47:15.963Z,997.71
2017-04-25T08:48:17.388Z,997.77
2017-04-25T08:49:18.805Z,997.74
2017-04-25T08:50:20.225Z,997.82
2017-04-25T08:51:21.648Z,997.76
2017-04-25T08:52:23.067Z,997.80
2017-04-25T08:53:24.481Z,997.90
2017-04-25T08:54:25.938Z,997.75
2017-04-25T08:55:27.360Z,997.81
2017-04-25T08:56:28.781Z,997.80
2017-04-25T08:57:30.205Z,997.85
2017-04-25T08:58:31.636Z,997.83
2017-04-25T08:59:33.060Z,997.83
2017-04-25T09:00:34.479Z,997.83
2017-04-25T09:01:35.900Z,997.82
2017-04-25T09:02:37.318Z,997.82
2017-04-25T09:03:38.743Z,997.73
2017-04-25T09:04:40.189Z,997.78
2017-04-25T09:05:41.590Z,997.77
2017-04-25T09:06:43.007Z,997.75
2017-04-25T09:07:44.427Z,997.73
2017-04-25T09:08:45.862Z,997.73
2017-04-25T09:09:47.281Z,997.82
2017-04-25T09:10:48.712Z,997.80
2017-04-25T09:11:50.141Z,997.77
2017-04-25T09:12:51.559Z,997.88
2017-04-25T09:13:52.987Z,997.79
2017-04-25T09:14:54.412Z,997.77
2017-04-25T09:15:55.840Z,997.81
2017-04-25T09:16:57.258Z,997.76
2017-04-25T09:17:58.683Z,997.74
2017-04-25T09:19:00.106Z,997.81
2017-04-25T09:20:01.529Z,997.75
2017-04-25T09:21:02.947Z,997.94
2017-04-25T09:22:04.379Z,997.84
2017-04-25T09:23:05.799Z,997.87
2017-04-25T09:24:07.219Z,997.92
2017-04-25T09:25:08.650Z,997.86
2017-04-25T09:26:10.081Z,997.83
2017-04-25T09:27:11.503Z,997.88
2017-04-25T09:28:12.935Z,997.98
2017-04-25T09:29:14.354Z,997.93
2017-04-25T09:30:15.781Z,997.98
2017-04-25T09:31:17.199Z,997.96
2017-04-25T09:32:18.623Z,997.97
2017-04-25T09:33:20.053Z,998.05
2017-04-25T09:34:21.471Z,998.01
2017-04-25T09:35:22.899Z,998.09
2017-04-25T09:36:24.318Z,998.16
2017-04-25T09:37:25.739Z,998.03
2017-04-25T09:38:27.161Z,998.09
2017-04-25T09:39:28.583Z,998.10
2017-04-25T09:40:30.003Z,998.18
2017-04-25T09:41:31.434Z,998.20
2017-04-25T09:42:32.870Z,998.19
2017-04-25T09:43:34.297Z,998.17
2017-04-25T09:44:35.718Z,998.16
2017-04-25T09:45:37.142Z,998.22
2017-04-25T09:46:38.563Z,998.15
2017-04-25T09:47:39.988Z,998.18
2017-04-25T09:48:41.412Z,998.26
2017-04-25T09:49:42.832Z,998.31
2017-04-25T09:50:44.259Z,998.21
2017-04-25T09:51:45.694Z,998.26
2017-04-25T09:52:47.112Z,998.22
2017-04-25T09:53:48.530Z,998.20
2017-04-25T09:54:49.959Z,998.25
2017-04-25T09:55:51.385Z,998.22
2017-04-25T09:56:52.818Z,998.24
2017-04-25T09:57:54.246Z,998.22
2017-04-25T09:58:55.673Z,998.19
2017-04-25T09:59:57.097Z,998.23
2017-04-25T10:00:58.524Z,998.26
2017-04-25T10:01:59.937Z,998.31
2017-04-25T10:03:01.360Z,998.28
2017-04-25T10:04:02.783Z,998.31
2017-04-25T10:05:04.214Z,998.30
2017-04-25T10:06:05.637Z,998.37
2017-04-25T10:07:07.063Z,998.32
2017-04-25T10:08:08.490Z,998.26
2017-04-25T10:09:09.910Z,998.27
2017-04-25T10:10:11.333Z,998.32
2017-04-25T10:11:12.761Z,998.27
2017-04-25T10:12:14.182Z,998.35
2017-04-25T10:13:15.602Z,998.29
2017-04-25T10:14:17.024Z,998.31
2017-04-25T10:15:18.445Z,998.27
2017-04-25T10:16:19.869Z,998.31
2017-04-25T10:17:21.302Z,998.35
2017-04-25T10:18:22.726Z,998.32
2017-04-25T10:19:24.143Z,998.38
2017-04-25T10:20:25.568Z,998.44
2017-04-25T10:21:26.993Z,998.34
2017-04-25T10:22:28.416Z,998.36
2017-04-25T10:23:29.835Z,998.42
2017-04-25T10:24:31.261Z,998.40
2017-04-25T10:25:32.706Z,998.39
2017-04-25T10:26:34.108Z,998.27
2017-04-25T10:27:35.531Z,998.22
2017-04-25T10:28:36.957Z,998.20
2017-04-25T10:29:38.377Z,998.27
2017-04-25T10:30:39.802Z,998.20
2017-04-25T10:31:41.233Z,998.21
2017-04-25T10:32:42.653Z,998.24
2017-04-25T10:33:44.080Z,998.21
2017-04-25T10:34:45.501Z,998.22
2017-04-25T10:35:46.923Z,998.19
2017-04-25T10:36:48.405Z,998.23
2017-04-25T10:37:49.835Z,998.26
2017-04-25T10:38:51.254Z,998.21
2017-04-25T10:39:52.712Z,998.30
2017-04-25T10:40:54.135Z,998.15
2017-04-25T10:41:55.567Z,998.24
2017-04-25T10:42:56.989Z,998.21
2017-04-25T10:43:58.476Z,998.19
2017-04-25T10:44:59.899Z,998.23
2017-04-25T10:46:01.317Z,998.27
2017-04-25T10:47:02.839Z,998.16
2017-04-25T10:48:04.314Z,998.27
2017-04-25T10:49:05.732Z,998.25
2017-04-25T10:50:07.160Z,998.35
2017-04-25T10:51:08.668Z,998.27
2017-04-25T10:52:10.099Z,998.31
2017-04-25T10:53:11.533Z,998.26
2017-04-25T10:54:12.951Z,998.25
2017-04-25T10:55:14.372Z,998.21
2017-04-25T10:56:15.798Z,998.20
2017-04-25T10:57:17.219Z,998.19
2017-04-25T10:58:18.712Z,998.31
2017-04-25T10:59:20.144Z,998.24
2017-04-25T11:00:21.567Z,998.39
2017-04-25T11:01:22.992Z,998.31
2017-04-25T11:02:24.418Z,998.26
2017-04-25T11:03:25.842Z,998.29
2017-04-25T11:04:27.267Z,998.31
2017-04-25T11:05:28.684Z,998.34
2017-04-25T11:06:30.111Z,998.43
2017-04-25T11:07:31.534Z,998.34
2017-04-25T11:08:32.968Z,998.35
2017-04-25T11:09:34.390Z,998.29
2017-04-25T11:10:35.814Z,998.40
2017-04-25T11:11:37.237Z,998.37
2017-04-25T11:12:38.655Z,998.38
2017-04-25T11:13:40.075Z,998.51
2017-04-25T11:14:41.502Z,998.47
2017-04-25T11:15:42.920Z,998.57
2017-04-25T11:16:44.337Z,998.57
2017-04-25T11:17:45.759Z,998.59
2017-04-25T11:18:47.193Z,998.57
2017-04-25T11:19:48.605Z,998.69
2017-04-25T11:20:50.027Z,998.62
2017-04-25T11:21:51.446Z,998.71
2017-04-25T11:22:52.865Z,998.66
2017-04-25T11:23:54.279Z,998.56
2017-04-25T11:24:55.697Z,998.62
2017-04-25T11:25:57.119Z,998.57
2017-04-25T11:26:58.538Z,998.49
2017-04-25T11:27:59.961Z,998.58
2017-04-25T11:29:01.379Z,998.58
2017-04-25T11:30:02.805Z,998.60
2017-04-25T11:31:04.253Z,998.68
2017-04-25T11:32:05.663Z,998.65
2017-04-25T11:33:07.080Z,998.66
2017-04-25T11:34:08.505Z,998.64
2017-04-25T11:35:09.929Z,998.65
2017-04-25T11:36:11.354Z,998.61
2017-04-25T11:37:12.784Z,998.57
2017-04-25T11:38:14.212Z,998.54
2017-04-25T11:39:15.639Z,998.55
2017-04-25T11:40:17.067Z,998.54
2017-04-25T11:41:18.481Z,998.50
2017-04-25T11:42:19.904Z,998.54
2017-04-25T11:43:21.321Z,998.68
2017-04-25T11:44:22.752Z,998.66
2017-04-25T11:45:24.182Z,998.71
2017-04-25T11:46:25.608Z,998.66
2017-04-25T11:47:27.031Z,998.59
2017-04-25T11:48:28.483Z,998.66
2017-04-25T11:49:29.919Z,998.68
2017-04-25T11:50:31.350Z,998.61
2017-04-25T11:51:32.776Z,998.71
2017-04-25T11:52:34.204Z,998.71
2017-04-25T11:53:35.627Z,998.84
2017-04-25T11:54:37.043Z,998.73
2017-04-25T11:55:38.465Z,998.69
2017-04-25T11:56:39.887Z,998.64
2017-04-25T11:57:41.315Z,998.67
2017-04-25T11:58:42.745Z,998.95
2017-04-25T11:59:44.178Z,999.24
2017-04-25T12:00:45.595Z,999.25
2017-04-25T12:01:47.016Z,999.25
2017-04-25T12:02:48.445Z,999.34
2017-04-25T12:03:49.871Z,999.48
2017-04-25T12:04:51.288Z,999.47
2017-04-25T12:05:52.704Z,999.60
2017-04-25T12:06:54.130Z,999.67
2017-04-25T12:07:55.549Z,999.69
2017-04-25T12:08:56.970Z,999.65
2017-04-25T12:09:58.389Z,999.61
2017-04-25T12:10:59.809Z,999.62
2017-04-25T12:12:01.234Z,999.65
2017-04-25T12:13:02.645Z,999.70
2017-04-25T12:14:04.073Z,999.65
2017-04-25T12:15:05.498Z,999.76
2017-04-25T12:16:06.913Z,999.77
2017-04-25T12:17:08.331Z,999.78
2017-04-25T12:18:09.773Z,999.77
2017-04-25T12:19:11.180Z,999.80
2017-04-25T12:20:12.599Z,999.78
2017-04-25T12:21:14.014Z,999.82
2017-04-25T12:22:15.432Z,999.85
2017-04-25T12:23:16.849Z,999.74
2017-04-25T12:24:18.276Z,999.71
2017-04-25T12:25:19.695Z,999.76
2017-04-25T12:26:21.113Z,999.65
2017-04-25T12:27:22.531Z,999.64
2017-04-25T12:28:23.949Z,999.66
2017-04-25T12:29:25.382Z,999.66
2017-04-25T12:30:26.809Z,999.63
2017-04-25T12:31:28.232Z,999.59
2017-04-25T12:32:29.649Z,999.62
2017-04-25T12:33:31.075Z,999.56
2017-04-25T12:34:32.502Z,999.57
2017-04-25T12:35:33.934Z,999.48
2017-04-25T12:36:35.347Z,999.51
2017-04-25T12:37:36.879Z,999.51
2017-04-25T12:38:38.342Z,999.52
2017-04-25T12:39:39.759Z,999.54
2017-04-25T12:40:41.178Z,999.53
2017-04-25T12:41:42.637Z,999.49
2017-04-25T12:42:44.070Z,999.51
2017-04-25T12:43:45.486Z,999.44
2017-04-25T12:44:48.440Z,999.49
2017-04-25T12:45:49.862Z,999.51